createdAt,value
2022-12-17T00:01:48.447Z,-1.41
2022-12-17T00:04:33.423Z,-1.22
2022-12-17T00:07:18.424Z,-1.26
2022-12-17T00:10:03.505Z,-1.27
2022-12-17T00:12:48.720Z,-1.41
2022-12-17T00:15:34.062Z,-1.26
2022-12-17T00:18:24.199Z,-1.25
2022-12-17T00:21:17.977Z,-1.27
2022-12-17T00:24:03.372Z,-1.23
2022-12-17T00:26:48.799Z,-1.16
2022-12-17T00:29:34.613Z,-1.13
2022-12-17T00:32:19.955Z,-1.12
2022-12-17T00:35:05.148Z,-1.12
2022-12-17T00:37:50.774Z,-1.26
2022-12-17T00:40:36.136Z,-1.14
2022-12-17T00:43:29.954Z,-1.27
2022-12-17T00:46:15.333Z,-1.44
2022-12-17T00:49:00.562Z,-1.51
2022-12-17T00:51:46.656Z,-1.52
2022-12-17T00:54:42.488Z,-1.76
2022-12-17T00:57:27.411Z,-1.44
2022-12-17T01:00:12.414Z,-1.47
2022-12-17T01:02:57.728Z,-1.47
2022-12-17T01:05:44.710Z,-1.49
2022-12-17T01:08:32.436Z,-1.48
2022-12-17T01:11:23.310Z,-1.51
2022-12-17T01:14:08.685Z,-1.54
2022-12-17T01:17:11.265Z,-1.51
2022-12-17T01:19:56.498Z,-1.60
2022-12-17T01:22:41.735Z,-1.57
2022-12-17T01:25:26.896Z,-1.53
2022-12-17T01:28:11.889Z,-1.55
2022-12-17T01:30:57.011Z,-1.50
2022-12-17T01:33:42.134Z,-1.54
2022-12-17T01:36:48.273Z,-1.42
2022-12-17T01:39:37.957Z,-1.48
2022-12-17T01:42:27.699Z,-1.52
2022-12-17T01:45:13.565Z,-1.62
2022-12-17T01:48:02.428Z,-1.53
2022-12-17T01:50:51.556Z,-1.63
2022-12-17T01:53:40.207Z,-1.50
2022-12-17T01:56:26.768Z,-1.49
2022-12-17T01:59:11.989Z,-1.53
2022-12-17T02:01:58.637Z,-1.58
2022-12-17T02:04:44.457Z,-1.58
2022-12-17T02:07:51.776Z,-1.65
2022-12-17T02:10:44.720Z,-1.70
2022-12-17T02:13:37.337Z,-1.84
2022-12-17T02:16:53.889Z,-1.87
2022-12-17T02:20:04.675Z,-1.93
2022-12-17T02:23:11.611Z,-2.00
2022-12-17T02:26:10.519Z,-2.09
2022-12-17T02:29:01.968Z,-2.24
2022-12-17T02:31:48.709Z,-2.33
2022-12-17T02:34:34.471Z,-2.38
2022-12-17T02:37:19.736Z,-2.42
2022-12-17T02:40:05.041Z,-2.41
2022-12-17T02:42:53.024Z,-2.56
2022-12-17T02:45:38.660Z,-2.56
2022-12-17T02:48:34.317Z,-2.65
2022-12-17T02:51:19.602Z,-2.74
2022-12-17T02:54:11.873Z,-2.93
2022-12-17T02:56:57.553Z,-2.72
2022-12-17T02:59:43.772Z,-2.76
2022-12-17T03:02:33.634Z,-2.82
2022-12-17T03:05:43.404Z,-2.85
2022-12-17T03:08:24.321Z,-2.83
2022-12-17T03:11:09.586Z,-2.87
2022-12-17T03:13:54.728Z,-2.94
2022-12-17T03:16:40.164Z,-3.10
2022-12-17T03:19:25.265Z,-3.08
2022-12-17T03:22:10.305Z,-3.23
2022-12-17T03:24:55.474Z,-3.18
2022-12-17T03:27:40.519Z,-3.18
2022-12-17T03:30:25.853Z,-3.18
2022-12-17T03:33:11.152Z,-3.19
2022-12-17T03:35:56.255Z,-3.33
2022-12-17T03:38:41.135Z,-3.42
2022-12-17T03:41:26.079Z,-3.31
2022-12-17T03:44:10.897Z,-3.37
2022-12-17T03:46:55.857Z,-3.42
2022-12-17T03:49:40.791Z,-3.55
2022-12-17T03:52:25.990Z,-3.49
2022-12-17T03:55:10.823Z,-3.68
2022-12-17T03:57:55.785Z,-3.59
2022-12-17T04:01:00.856Z,-3.64
2022-12-17T04:03:45.993Z,-3.61
2022-12-17T04:06:30.944Z,-3.64
2022-12-17T04:09:15.695Z,-3.98
2022-12-17T04:12:00.936Z,-3.86
2022-12-17T04:14:45.822Z,-3.77
2022-12-17T04:17:30.834Z,-3.80
2022-12-17T04:20:15.882Z,-3.77
2022-12-17T04:23:01.174Z,-3.84
2022-12-17T04:25:46.281Z,-3.97
2022-12-17T04:28:31.017Z,-3.98
2022-12-17T04:31:16.021Z,-4.01
2022-12-17T04:34:01.329Z,-4.05
2022-12-17T04:36:50.731Z,-4.07
2022-12-17T04:39:35.693Z,-4.21
2022-12-17T04:42:20.478Z,-4.19
2022-12-17T04:45:05.298Z,-4.24
2022-12-17T04:47:50.347Z,-4.20
2022-12-17T04:50:35.471Z,-4.24
2022-12-17T04:53:22.449Z,-4.27
2022-12-17T04:56:07.812Z,-4.27
2022-12-17T04:58:53.475Z,-4.32
2022-12-17T05:01:39.216Z,-4.39
2022-12-17T05:04:24.401Z,-4.38
2022-12-17T05:07:09.350Z,-4.39
2022-12-17T05:09:54.478Z,-4.39
2022-12-17T05:12:39.910Z,-4.37
2022-12-17T05:15:25.805Z,-4.32
2022-12-17T05:18:10.939Z,-4.26
2022-12-17T05:20:56.113Z,-4.23
2022-12-17T05:23:41.203Z,-4.20
2022-12-17T05:26:47.169Z,-4.16
2022-12-17T05:29:32.751Z,-4.15
2022-12-17T05:32:18.209Z,-4.20
2022-12-17T05:35:03.185Z,-4.24
2022-12-17T05:37:47.936Z,-4.30
2022-12-17T05:40:33.935Z,-4.32
2022-12-17T05:43:25.038Z,-4.32
2022-12-17T05:46:10.422Z,-4.45
2022-12-17T05:48:55.589Z,-4.45
2022-12-17T05:51:41.304Z,-4.45
2022-12-17T05:54:26.944Z,-4.52
2022-12-17T05:57:12.423Z,-4.59
2022-12-17T05:59:57.657Z,-4.67
2022-12-17T06:02:43.108Z,-4.70
2022-12-17T06:05:28.315Z,-4.78
2022-12-17T06:08:21.411Z,-4.83
2022-12-17T06:11:06.500Z,-4.92
2022-12-17T06:13:51.689Z,-5.13
2022-12-17T06:16:36.833Z,-5.10
2022-12-17T06:19:22.151Z,-5.22
2022-12-17T06:22:07.245Z,-5.18
2022-12-17T06:24:52.153Z,-5.21
2022-12-17T06:27:37.433Z,-5.30
2022-12-17T06:30:23.033Z,-5.27
2022-12-17T06:33:08.186Z,-5.31
2022-12-17T06:35:53.164Z,-5.38
2022-12-17T06:38:38.085Z,-5.49
2022-12-17T06:41:23.266Z,-5.44
2022-12-17T06:44:08.963Z,-5.48
2022-12-17T06:46:54.531Z,-5.57
2022-12-17T06:49:39.749Z,-5.51
2022-12-17T06:52:24.541Z,-5.49
2022-12-17T06:55:09.353Z,-5.48
2022-12-17T06:57:54.705Z,-5.53
2022-12-17T07:00:42.802Z,-5.65
2022-12-17T07:03:30.527Z,-5.60
2022-12-17T07:06:19.153Z,-5.58
2022-12-17T07:09:05.833Z,-5.63
2022-12-17T07:11:50.767Z,-5.59
2022-12-17T07:14:36.080Z,-5.80
2022-12-17T07:17:21.446Z,-5.57
2022-12-17T07:20:06.761Z,-5.53
2022-12-17T07:22:52.023Z,-5.65
2022-12-17T07:25:40.468Z,-5.45
2022-12-17T07:28:28.170Z,-5.57
2022-12-17T07:31:15.087Z,-5.48
2022-12-17T07:34:00.265Z,-5.46
2022-12-17T07:36:45.196Z,-5.34
2022-12-17T07:39:30.371Z,-5.31
2022-12-17T07:42:15.636Z,-5.30
2022-12-17T07:45:00.806Z,-5.27
2022-12-17T07:47:45.960Z,-5.25
2022-12-17T07:50:31.419Z,-5.09
2022-12-17T07:53:20.454Z,-5.08
2022-12-17T07:56:05.761Z,-5.14
2022-12-17T07:58:51.045Z,-5.15
2022-12-17T08:01:36.480Z,-5.17
2022-12-17T08:04:21.690Z,-5.10
2022-12-17T08:07:11.154Z,-5.11
2022-12-17T08:09:58.580Z,-5.12
2022-12-17T08:12:43.671Z,-5.12
2022-12-17T08:15:28.741Z,-5.09
2022-12-17T08:18:26.387Z,-5.19
2022-12-17T08:21:12.924Z,-5.26
2022-12-17T08:23:58.026Z,-5.36
2022-12-17T08:26:47.866Z,-5.31
2022-12-17T08:29:37.471Z,-5.27
2022-12-17T08:32:22.763Z,-5.31
2022-12-17T08:35:07.551Z,-4.73
2022-12-17T08:37:53.042Z,-4.46
2022-12-17T08:40:38.208Z,-4.41
2022-12-17T08:43:23.654Z,-4.46
2022-12-17T08:46:10.798Z,-4.73
2022-12-17T08:48:57.011Z,-4.53
2022-12-17T08:51:43.184Z,-4.55
2022-12-17T08:54:28.670Z,-4.39
2022-12-17T08:57:22.572Z,-4.35
2022-12-17T09:00:16.270Z,-4.12
2022-12-17T09:03:01.201Z,-4.01
2022-12-17T09:05:46.952Z,-3.87
2022-12-17T09:08:32.214Z,-3.86
2022-12-17T09:11:20.106Z,-3.69
2022-12-17T09:14:04.820Z,-3.61
2022-12-17T09:16:50.050Z,-3.85
2022-12-17T09:19:35.039Z,-3.60
2022-12-17T09:22:20.409Z,-3.59
2022-12-17T09:25:05.192Z,-3.44
2022-12-17T09:27:50.546Z,-3.40
2022-12-17T09:30:35.723Z,-3.71
2022-12-17T09:33:20.935Z,-3.34
2022-12-17T09:36:05.631Z,-3.21
2022-12-17T09:38:50.559Z,-3.13
2022-12-17T09:41:45.932Z,-3.09
2022-12-17T09:44:53.382Z,-3.06
2022-12-17T09:47:58.168Z,-3.02
2022-12-17T09:50:43.886Z,-3.06
2022-12-17T09:53:41.523Z,-2.97
2022-12-17T09:56:30.154Z,-2.83
2022-12-17T09:59:14.973Z,-2.72
2022-12-17T10:02:00.593Z,-2.65
2022-12-17T10:04:55.527Z,-2.54
2022-12-17T10:07:49.760Z,-2.53
2022-12-17T10:10:41.838Z,-2.40
2022-12-17T10:13:30.495Z,-2.39
2022-12-17T10:16:15.587Z,-2.30
2022-12-17T10:19:01.348Z,-2.20
2022-12-17T10:21:46.527Z,-2.17
2022-12-17T10:24:31.711Z,-2.21
2022-12-17T10:27:16.833Z,-2.05
2022-12-17T10:30:03.301Z,-2.03
2022-12-17T10:32:48.920Z,-2.01
2022-12-17T10:35:43.658Z,-1.91
2022-12-17T10:38:46.551Z,-2.07
2022-12-17T10:41:40.643Z,-2.07
2022-12-17T10:44:58.145Z,-2.08
2022-12-17T10:47:46.139Z,-2.15
2022-12-17T10:50:32.744Z,-2.19
2022-12-17T10:53:19.167Z,-2.14
2022-12-17T10:56:21.795Z,-2.25
2022-12-17T10:59:10.809Z,-2.21
2022-12-17T11:01:58.594Z,-2.13
2022-12-17T11:05:15.943Z,-1.99
2022-12-17T11:08:02.843Z,-1.99
2022-12-17T11:10:52.396Z,-1.90
2022-12-17T11:13:47.906Z,-1.78
2022-12-17T11:16:43.056Z,-1.81
2022-12-17T11:19:28.216Z,-1.61
2022-12-17T11:22:24.615Z,-1.53
2022-12-17T11:25:24.232Z,-1.48
2022-12-17T11:28:23.924Z,-1.39
2022-12-17T11:31:16.815Z,-1.26
2022-12-17T11:34:13.713Z,-1.00
2022-12-17T11:37:09.111Z,-0.91
2022-12-17T11:40:06.875Z,-0.89
2022-12-17T11:42:58.954Z,-0.96
2022-12-17T11:45:52.267Z,-0.92
2022-12-17T11:48:51.831Z,-0.92
2022-12-17T11:51:47.455Z,-0.82
2022-12-17T11:54:54.607Z,-0.57
2022-12-17T11:57:45.043Z,-0.38
2022-12-17T12:00:41.770Z,-0.39
2022-12-17T12:04:08.964Z,-0.37
2022-12-17T12:07:14.580Z,-0.22
2022-12-17T12:10:17.835Z,-0.03
2022-12-17T12:13:29.807Z,0.10
2022-12-17T12:16:24.534Z,0.16
2022-12-17T12:19:52.982Z,0.28
2022-12-17T12:22:48.032Z,0.40
2022-12-17T12:25:48.582Z,0.38
2022-12-17T12:28:52.645Z,0.06
2022-12-17T12:31:55.183Z,0.08
2022-12-17T12:34:45.894Z,-0.17
2022-12-17T12:37:33.828Z,-0.33
2022-12-17T12:40:23.826Z,-0.09
2022-12-17T12:43:23.859Z,0.06
2022-12-17T12:46:35.367Z,0.06
2022-12-17T12:49:23.355Z,0.01
2022-12-17T12:52:09.973Z,0.10
2022-12-17T12:55:04.815Z,0.24
2022-12-17T12:57:54.210Z,0.07
2022-12-17T13:00:47.704Z,0.18
2022-12-17T13:03:45.267Z,0.24
2022-12-17T13:06:43.027Z,0.32
2022-12-17T13:09:15.772Z,0.39
2022-12-17T13:11:44.867Z,0.40
2022-12-17T13:14:33.500Z,0.41
2022-12-17T13:17:04.623Z,0.40
2022-12-17T13:19:33.856Z,0.39
2022-12-17T13:22:21.721Z,0.30
2022-12-17T13:25:18.232Z,-0.19
2022-12-17T13:27:45.244Z,-0.10
2022-12-17T13:30:11.867Z,-0.25
2022-12-17T13:32:47.397Z,-0.45
2022-12-17T13:35:38.566Z,-0.49
2022-12-17T13:38:35.525Z,-0.67
2022-12-17T13:41:11.244Z,-0.88
2022-12-17T13:43:45.069Z,-0.92
2022-12-17T13:46:29.336Z,-0.94
2022-12-17T13:49:01.750Z,-1.00
2022-12-17T13:51:33.684Z,-1.21
2022-12-17T13:54:03.904Z,-1.69
2022-12-17T13:56:34.352Z,-1.46
2022-12-17T13:59:08.376Z,-1.43
2022-12-17T14:01:44.993Z,-1.37
2022-12-17T14:04:20.482Z,-1.34
2022-12-17T14:06:47.864Z,-1.35
2022-12-17T14:09:17.464Z,-1.30
2022-12-17T14:12:02.623Z,-1.24
2022-12-17T14:14:41.512Z,-1.25
2022-12-17T14:17:19.595Z,-1.25
2022-12-17T14:19:47.626Z,-1.30
2022-12-17T14:22:22.896Z,-1.40
2022-12-17T14:24:49.626Z,-1.30
2022-12-17T14:27:26.297Z,-1.39
2022-12-17T14:29:53.032Z,-1.39
2022-12-17T14:32:24.262Z,-1.41
2022-12-17T14:34:52.721Z,-1.55
2022-12-17T14:37:25.024Z,-1.49
2022-12-17T14:39:54.663Z,-1.71
2022-12-17T14:42:29.632Z,-1.61
2022-12-17T14:45:02.541Z,-1.62
2022-12-17T14:47:37.472Z,-1.72
2022-12-17T14:50:13.245Z,-1.72
2022-12-17T14:52:45.928Z,-2.04
2022-12-17T14:55:57.768Z,-1.82
2022-12-17T14:58:26.116Z,-1.87
2022-12-17T15:00:56.764Z,-1.91
2022-12-17T15:03:32.904Z,-1.95
2022-12-17T15:06:04.396Z,-2.06
2022-12-17T15:08:34.724Z,-2.06
2022-12-17T15:11:01.917Z,-2.19
2022-12-17T15:13:28.467Z,-2.22
2022-12-17T15:15:54.976Z,-2.27
2022-12-17T15:18:24.339Z,-2.36
2022-12-17T15:20:50.959Z,-2.42
2022-12-17T15:23:20.491Z,-2.41
2022-12-17T15:25:48.985Z,-2.50
2022-12-17T15:28:17.908Z,-2.57
2022-12-17T15:30:45.041Z,-2.59
2022-12-17T15:33:12.179Z,-2.64
2022-12-17T15:35:39.266Z,-2.77
2022-12-17T15:38:06.683Z,-2.78
2022-12-17T15:40:34.029Z,-2.81
2022-12-17T15:43:12.521Z,-2.87
2022-12-17T15:45:39.125Z,-2.93
2022-12-17T15:48:06.090Z,-3.14
2022-12-17T15:50:33.108Z,-3.06
2022-12-17T15:52:59.667Z,-3.36
2022-12-17T15:55:26.190Z,-3.16
2022-12-17T15:57:52.700Z,-3.16
2022-12-17T16:00:19.349Z,-3.24
2022-12-17T16:02:48.468Z,-3.29
2022-12-17T16:05:15.663Z,-3.39
2022-12-17T16:07:43.442Z,-3.45
2022-12-17T16:10:11.664Z,-3.45
2022-12-17T16:12:39.156Z,-3.48
2022-12-17T16:15:08.113Z,-3.58
2022-12-17T16:17:35.417Z,-3.60
2022-12-17T16:20:02.534Z,-3.63
2022-12-17T16:22:29.118Z,-3.69
2022-12-17T16:24:55.628Z,-3.71
2022-12-17T16:27:22.151Z,-3.79
2022-12-17T16:29:48.765Z,-3.84
2022-12-17T16:32:16.883Z,-3.84
2022-12-17T16:34:44.293Z,-3.88
2022-12-17T16:37:11.383Z,-4.00
2022-12-17T16:39:37.929Z,-4.06
2022-12-17T16:42:04.602Z,-4.08
2022-12-17T16:44:31.112Z,-4.02
2022-12-17T16:46:59.707Z,-4.06
2022-12-17T16:49:26.259Z,-4.22
2022-12-17T16:51:54.163Z,-4.21
2022-12-17T16:54:26.915Z,-4.20
2022-12-17T16:56:54.258Z,-4.13
2022-12-17T16:59:22.112Z,-4.16
2022-12-17T17:01:50.820Z,-4.27
2022-12-17T17:04:19.817Z,-4.28
2022-12-17T17:06:48.881Z,-4.27
2022-12-17T17:09:16.346Z,-4.40
2022-12-17T17:11:46.868Z,-4.36
2022-12-17T17:14:16.863Z,-4.40
2022-12-17T17:16:43.531Z,-4.49
2022-12-17T17:19:10.070Z,-4.48
2022-12-17T17:21:38.876Z,-4.48
2022-12-17T17:24:21.375Z,-4.51
2022-12-17T17:26:49.727Z,-4.63
2022-12-17T17:29:16.352Z,-4.60
2022-12-17T17:34:29.547Z,-4.89
2022-12-17T17:36:56.128Z,-4.76
2022-12-17T17:39:22.621Z,-4.74
2022-12-17T17:41:49.189Z,-4.79
2022-12-17T17:44:16.551Z,-5.16
2022-12-17T17:46:43.246Z,-5.01
2022-12-17T17:49:09.929Z,-5.01
2022-12-17T17:52:08.436Z,-4.95
2022-12-17T17:54:26.056Z,-4.96
2022-12-17T17:56:52.611Z,-4.99
2022-12-17T17:59:19.494Z,-5.05
2022-12-17T18:01:50.934Z,-5.02
2022-12-17T18:04:21.988Z,-5.14
2022-12-17T18:07:23.184Z,-5.04
2022-12-17T18:09:35.528Z,-5.06
2022-12-17T18:12:22.438Z,-5.10
2022-12-17T18:15:12.698Z,-5.12
2022-12-17T18:17:35.549Z,-5.15
2022-12-17T18:20:02.140Z,-5.46
2022-12-17T18:22:28.984Z,-5.31
2022-12-17T18:24:55.486Z,-5.40
2022-12-17T18:27:22.114Z,-5.58
2022-12-17T18:29:48.644Z,-5.61
2022-12-17T18:32:15.233Z,-5.56
2022-12-17T18:34:41.877Z,-5.59
2022-12-17T18:37:10.425Z,-5.57
2022-12-17T18:39:37.719Z,-5.62
2022-12-17T18:42:23.032Z,-5.80
2022-12-17T18:44:49.845Z,-5.74
2022-12-17T18:47:16.539Z,-5.70
2022-12-17T18:49:43.269Z,-5.73
2022-12-17T18:52:16.259Z,-5.74
2022-12-17T18:54:43.360Z,-5.71
2022-12-17T18:57:09.971Z,-5.79
2022-12-17T18:59:37.376Z,-5.84
2022-12-17T19:02:04.306Z,-5.90
2022-12-17T19:04:32.970Z,-5.85
2022-12-17T19:06:59.818Z,-5.89
2022-12-17T19:09:36.013Z,-5.87
2022-12-17T19:12:05.008Z,-5.76
2022-12-17T19:14:32.230Z,-5.72
2022-12-17T19:16:59.331Z,-5.75
2022-12-17T19:19:26.827Z,-5.69
2022-12-17T19:21:55.243Z,-5.68
2022-12-17T19:24:22.888Z,-5.58
2022-12-17T19:26:50.391Z,-5.87
2022-12-17T19:29:18.475Z,-5.80
2022-12-17T19:31:45.748Z,-5.50
2022-12-17T19:34:14.000Z,-5.58
2022-12-17T19:36:41.402Z,-5.43
2022-12-17T19:39:12.315Z,-5.38
2022-12-17T19:41:39.113Z,-5.29
2022-12-17T19:44:08.110Z,-5.31
2022-12-17T19:46:36.199Z,-5.18
2022-12-17T19:49:03.813Z,-5.11
2022-12-17T19:51:31.838Z,-5.12
2022-12-17T19:54:01.960Z,-5.03
2022-12-17T19:56:34.693Z,-5.04
2022-12-17T19:59:04.845Z,-4.90
2022-12-17T20:01:33.490Z,-4.86
2022-12-17T20:04:00.333Z,-4.84
2022-12-17T20:06:29.526Z,-4.78
2022-12-17T20:08:58.432Z,-4.81
2022-12-17T20:11:35.364Z,-4.74
2022-12-17T20:14:06.046Z,-4.78
2022-12-17T20:16:35.765Z,-4.86
2022-12-17T20:19:03.840Z,-4.81
2022-12-17T20:21:30.635Z,-4.71
2022-12-17T20:23:57.524Z,-4.61
2022-12-17T20:26:24.516Z,-4.61
2022-12-17T20:28:51.176Z,-4.52
2022-12-17T20:31:18.143Z,-4.51
2022-12-17T20:33:44.750Z,-4.49
2022-12-17T20:36:14.727Z,-4.61
2022-12-17T20:38:43.152Z,-4.56
2022-12-17T20:41:24.494Z,-4.48
2022-12-17T20:43:51.884Z,-4.55
2022-12-17T20:46:19.945Z,-4.63
2022-12-17T20:48:47.008Z,-4.63
2022-12-17T20:51:20.782Z,-4.67
2022-12-17T20:53:47.728Z,-4.72
2022-12-17T20:56:17.415Z,-4.64
2022-12-17T20:58:44.728Z,-4.63
2022-12-17T21:01:14.304Z,-4.69
2022-12-17T21:03:41.201Z,-4.58
2022-12-17T21:06:41.603Z,-4.61
2022-12-17T21:09:09.198Z,-4.63
2022-12-17T21:11:37.090Z,-4.53
2022-12-17T21:14:10.930Z,-4.51
2022-12-17T21:16:39.538Z,-4.67
2022-12-17T21:19:07.900Z,-4.53
2022-12-17T21:21:36.684Z,-4.45
2022-12-17T21:24:04.134Z,-4.44
2022-12-17T21:26:36.214Z,-4.36
2022-12-17T21:29:04.854Z,-4.33
2022-12-17T21:31:38.039Z,-4.41
2022-12-17T21:34:06.814Z,-4.43
2022-12-17T21:36:34.720Z,-4.43
2022-12-17T21:39:02.159Z,-4.41
2022-12-17T21:41:37.808Z,-4.34
2022-12-17T21:44:08.014Z,-4.29
2022-12-17T21:46:34.943Z,-4.29
2022-12-17T21:49:06.622Z,-4.83
2022-12-17T21:51:33.459Z,-4.17
2022-12-17T21:54:08.410Z,-4.29
2022-12-17T21:56:36.176Z,-4.20
2022-12-17T21:59:02.957Z,-4.19
2022-12-17T22:01:32.316Z,-4.11
2022-12-17T22:04:02.144Z,-4.19
2022-12-17T22:06:35.824Z,-4.02
2022-12-17T22:09:17.425Z,-4.07
2022-12-17T22:12:19.118Z,-3.90
2022-12-17T22:14:46.700Z,-3.86
2022-12-17T22:17:13.213Z,-3.78
2022-12-17T22:19:39.907Z,-3.75
2022-12-17T22:22:06.441Z,-3.79
2022-12-17T22:24:36.668Z,-3.76
2022-12-17T22:27:04.241Z,-3.68
2022-12-17T22:29:55.094Z,-3.69
2022-12-17T22:32:44.440Z,-3.64
2022-12-17T22:37:13.650Z,-3.63
2022-12-17T22:40:56.406Z,-4.00
2022-12-17T22:44:37.891Z,-3.77
2022-12-17T22:44:38.221Z,-3.76
2022-12-17T22:46:18.338Z,-3.81
2022-12-17T22:48:44.979Z,-3.75
2022-12-17T22:51:12.947Z,-3.65
2022-12-17T22:53:43.525Z,-3.67
2022-12-17T22:56:16.068Z,-3.64
2022-12-17T22:58:54.038Z,-3.70
2022-12-17T23:01:23.117Z,-3.67
2022-12-17T23:03:53.825Z,-3.66
2022-12-17T23:06:20.957Z,-3.65
2022-12-17T23:08:47.701Z,-3.71
2022-12-17T23:11:17.479Z,-3.75
2022-12-17T23:13:44.462Z,-4.22
2022-12-17T23:16:13.598Z,-3.86
2022-12-17T23:18:41.235Z,-3.79
2022-12-17T23:21:25.136Z,-3.86
2022-12-17T23:23:52.282Z,-3.90
2022-12-17T23:26:27.644Z,-4.01
2022-12-17T23:28:58.249Z,-4.27
2022-12-17T23:31:31.471Z,-4.04
2022-12-17T23:33:58.099Z,-4.05
2022-12-17T23:36:25.663Z,-4.08
2022-12-17T23:38:53.038Z,-4.00
2022-12-17T23:41:21.995Z,-3.95
2022-12-17T23:43:49.533Z,-3.93
2022-12-17T23:46:17.751Z,-3.88
2022-12-17T23:48:46.075Z,-4.07
2022-12-17T23:51:14.698Z,-3.88
2022-12-17T23:53:42.554Z,-3.83
2022-12-17T23:56:11.246Z,-3.86
2022-12-17T23:58:39.238Z,-3.85
